Time;durP1;ratioP1;P1;durP2;ratioP2;P2;SDS_P1;SDS_P2;PMS_P1;PMS_P2;Temp;Humidity;BMP_temperature;BMP_pressure;BME280_temperature;BME280_humidity;BME280_pressure;Samples;Min_cycle;Max_cycle;Signal;HPM_P1;HPM_P2
2023/05/03 00:00:34;;;;;;;21.23;10.10;;;;;;;5.91;84.22;102282.41;5036679;28;20040;-66
2023/05/03 00:03:05;;;;;;;21.25;10.82;;;;;;;5.88;84.41;102281.41;5036686;28;20029;-66
2023/05/03 00:05:31;;;;;;;18.90;10.23;;;;;;;5.82;84.71;102273.50;5038124;28;20145;-66
2023/05/03 00:07:57;;;;;;;18.50;9.75;;;;;;;5.76;84.77;102282.75;5029520;28;20931;-66
2023/05/03 00:10:23;;;;;;;15.10;9.50;;;;;;;5.71;84.88;102275.72;5036479;28;20114;-66
2023/05/03 00:12:48;;;;;;;19.23;10.00;;;;;;;5.61;85.47;102274.50;5034619;28;20120;-66
2023/05/03 00:15:13;;;;;;;17.52;9.40;;;;;;;5.56;86.04;102275.16;5033036;28;20037;-66
2023/05/03 00:17:39;;;;;;;18.38;10.40;;;;;;;5.47;86.33;102270.56;5034903;28;20107;-67
2023/05/03 00:20:05;;;;;;;16.20;10.40;;;;;;;5.40;86.48;102275.44;5034867;28;20072;-66
2023/05/03 00:22:31;;;;;;;22.98;10.55;;;;;;;5.35;86.65;102272.69;5034040;28;20033;-66
2023/05/03 00:24:58;;;;;;;16.95;9.48;;;;;;;5.32;86.57;102269.13;5036709;28;20040;-66
2023/05/03 00:27:23;;;;;;;21.83;10.00;;;;;;;5.26;87.35;102268.91;5034078;28;20095;-66
2023/05/03 00:29:51;;;;;;;15.48;9.82;;;;;;;5.23;87.39;102264.53;5022692;28;20999;-66
2023/05/03 00:32:16;;;;;;;18.02;11.23;;;;;;;5.24;88.86;102261.19;5032787;28;20025;-66
2023/05/03 00:34:42;;;;;;;23.02;11.88;;;;;;;5.24;88.56;102268.88;5031415;28;20457;-66
2023/05/03 00:37:08;;;;;;;18.30;10.05;;;;;;;5.23;88.71;102257.72;5033852;28;20056;-66
2023/05/03 00:39:33;;;;;;;21.85;10.07;;;;;;;5.22;88.95;102265.34;5034723;28;20040;-66
2023/05/03 00:42:00;;;;;;;19.60;10.02;;;;;;;5.18;88.66;102261.81;5030665;28;20040;-66
2023/05/03 00:44:26;;;;;;;17.55;9.73;;;;;;;5.17;89.23;102274.56;5037746;28;20040;-68
2023/05/03 00:46:53;;;;;;;22.63;9.93;;;;;;;5.15;88.74;102268.53;5028302;28;20033;-68
2023/05/03 00:49:18;;;;;;;20.90;10.98;;;;;;;5.13;88.65;102272.72;5027942;28;20056;-68
2023/05/03 00:51:44;;;;;;;20.15;10.20;;;;;;;5.11;89.24;102274.34;5035376;28;20132;-66
2023/05/03 00:54:09;;;;;;;17.83;9.30;;;;;;;5.10;89.37;102275.19;5017757;28;20045;-67
2023/05/03 00:56:37;;;;;;;18.42;10.05;;;;;;;5.09;89.32;102274.28;5036591;28;20501;-67
2023/05/03 00:59:04;;;;;;;20.08;10.52;;;;;;;5.08;88.99;102280.22;5029635;28;20037;-67
2023/05/03 01:01:31;;;;;;;19.48;10.85;;;;;;;5.06;89.31;102274.19;5033235;28;20041;-67
2023/05/03 01:03:59;;;;;;;17.90;9.57;;;;;;;5.06;89.14;102283.56;5039289;28;20037;-67
2023/05/03 01:06:40;;;;;;;20.10;11.25;;;;;;;5.07;89.48;102280.19;5028805;28;20549;-66
2023/05/03 01:09:20;;;;;;;17.13;9.88;;;;;;;5.06;89.40;102284.44;5054867;28;20056;-66
2023/05/03 01:12:13;;;;;;;17.58;9.50;;;;;;;5.06;89.01;102279.31;5038249;28;20116;-66
2023/05/03 01:14:42;;;;;;;18.77;9.32;;;;;;;5.05;89.62;102281.78;5036091;28;20154;-67
2023/05/03 01:17:11;;;;;;;14.30;8.88;;;;;;;5.03;89.50;102275.75;5038447;28;20049;-66
2023/05/03 01:19:43;;;;;;;18.17;9.30;;;;;;;5.00;89.17;102284.19;5037083;28;20048;-67
2023/05/03 01:22:28;;;;;;;20.27;10.10;;;;;;;4.95;89.33;102274.59;5039927;28;20078;-67
2023/05/03 01:25:14;;;;;;;18.88;11.30;;;;;;;4.90;90.04;102282.06;5035783;28;20049;-66
2023/05/03 01:27:40;;;;;;;;;;;;;;;4.86;88.98;102272.56;5033153;28;20033;-67
2023/05/03 01:30:10;;;;;;;20.67;9.85;;;;;;;4.82;89.55;102274.91;5035224;28;19923;-66
2023/05/03 01:32:59;;;;;;;20.50;11.15;;;;;;;4.74;89.18;102276.31;5034492;28;20033;-66
2023/05/03 01:35:33;;;;;;;16.23;9.77;;;;;;;4.68;89.90;102275.25;5039135;28;20047;-66
2023/05/03 01:37:59;;;;;;;19.70;9.57;;;;;;;4.64;89.72;102278.50;5038065;28;20041;-66
2023/05/03 01:40:26;;;;;;;21.20;10.55;;;;;;;4.60;90.60;102275.75;5037899;28;20049;-67
2023/05/03 01:42:55;;;;;;;20.88;11.20;;;;;;;4.57;90.82;102279.06;5036681;28;20041;-66
2023/05/03 01:45:21;;;;;;;20.27;10.52;;;;;;;4.56;90.33;102285.03;5012495;28;20051;-67
2023/05/03 01:47:47;;;;;;;18.95;9.95;;;;;;;4.54;90.36;102284.06;5031764;28;20770;-67
2023/05/03 01:50:12;;;;;;;20.80;10.60;;;;;;;4.53;90.40;102282.34;5038251;28;21452;-67
2023/05/03 01:52:38;;;;;;;19.17;11.30;;;;;;;4.53;90.90;102284.91;5038594;28;20037;-66
2023/05/03 01:55:03;;;;;;;17.63;10.55;;;;;;;4.55;90.54;102279.81;5040467;28;20120;-67
2023/05/03 01:57:29;;;;;;;18.55;10.93;;;;;;;4.56;90.42;102279.91;5037638;28;20126;-67
2023/05/03 01:59:54;;;;;;;15.32;10.00;;;;;;;4.59;89.90;102274.03;5034150;28;20229;-67
2023/05/03 02:02:20;;;;;;;18.20;10.32;;;;;;;4.59;89.88;102281.72;5039775;28;20044;-67
2023/05/03 02:04:45;;;;;;;18.52;10.30;;;;;;;4.59;89.53;102284.28;5042626;28;20462;-67
2023/05/03 02:07:10;;;;;;;14.93;9.68;;;;;;;4.58;89.80;102282.50;5038819;28;20037;-67
2023/05/03 02:09:36;;;;;;;15.65;9.85;;;;;;;4.57;89.37;102286.75;5041589;28;20041;-67
2023/05/03 02:12:01;;;;;;;23.10;10.57;;;;;;;4.57;89.33;102286.75;5040580;28;20063;-67
2023/05/03 02:14:26;;;;;;;21.25;9.48;;;;;;;4.58;89.20;102283.38;5038504;28;20029;-67
2023/05/03 02:16:54;;;;;;;17.20;10.82;;;;;;;4.57;89.19;102288.44;5039377;28;20041;-67
2023/05/03 02:19:20;;;;;;;18.70;10.13;;;;;;;4.55;88.45;102290.06;5038023;28;20036;-67
2023/05/03 02:21:45;;;;;;;15.40;9.60;;;;;;;4.52;88.85;102297.63;5042321;28;20051;-67
2023/05/03 02:24:11;;;;;;;15.70;9.93;;;;;;;4.45;89.50;102299.06;5011931;28;20814;-67
2023/05/03 02:26:36;;;;;;;15.00;9.13;;;;;;;4.42;89.46;102304.06;5048107;28;20029;-67
2023/05/03 02:29:02;;;;;;;16.45;9.75;;;;;;;4.38;88.83;102298.75;5037271;28;20041;-67
2023/05/03 02:31:28;;;;;;;21.73;11.65;;;;;;;4.38;88.87;102304.75;5044071;28;20053;-67
2023/05/03 02:33:54;;;;;;;23.60;10.27;;;;;;;4.37;89.28;102302.13;5044042;28;20095;-67
2023/05/03 02:36:19;;;;;;;22.88;10.68;;;;;;;4.30;89.26;102308.66;5042852;28;20043;-67
2023/05/03 02:38:46;;;;;;;20.15;10.60;;;;;;;4.27;89.49;102307.69;5041011;28;20136;-66
2023/05/03 02:41:12;;;;;;;19.33;9.90;;;;;;;4.22;89.55;102304.91;5032469;28;20585;-66
2023/05/03 02:43:37;;;;;;;22.15;10.38;;;;;;;4.17;89.53;102313.22;5030926;28;20046;-67
2023/05/03 02:46:02;;;;;;;16.92;9.65;;;;;;;4.10;89.97;102318.06;5052273;28;20037;-67
2023/05/03 02:48:28;;;;;;;19.08;9.75;;;;;;;4.04;89.51;102320.38;5055333;28;20053;-67
2023/05/03 02:50:53;;;;;;;17.55;10.23;;;;;;;3.95;89.70;102317.41;5039933;28;20754;-67
2023/05/03 02:53:19;;;;;;;14.32;9.80;;;;;;;3.88;90.13;102318.00;5041938;28;20737;-67
2023/05/03 02:55:45;;;;;;;19.98;10.00;;;;;;;3.78;90.71;102328.59;5058220;28;20235;-66
2023/05/03 02:58:11;;;;;;;15.73;9.60;;;;;;;3.75;90.59;102310.56;5045689;28;20040;-67
2023/05/03 03:00:36;;;;;;;18.60;9.95;;;;;;;3.72;90.12;102314.69;5048159;28;20131;-67
2023/05/03 03:03:01;;;;;;;18.45;9.38;;;;;;;3.69;90.82;102309.44;5057422;28;20414;-66
2023/05/03 03:05:27;;;;;;;19.70;8.57;;;;;;;3.65;90.78;102313.53;5024634;28;20098;-67
2023/05/03 03:07:53;;;;;;;14.93;8.93;;;;;;;3.61;91.03;102309.09;5039263;28;20545;-67
2023/05/03 03:10:18;;;;;;;15.35;8.93;;;;;;;3.60;90.14;102309.03;5030805;28;20152;-67
2023/05/03 03:12:43;;;;;;;19.17;10.48;;;;;;;3.57;90.49;102307.22;5034978;28;20087;-70
2023/05/03 03:15:09;;;;;;;18.95;9.82;;;;;;;3.55;90.88;102308.84;5035925;28;20048;-67
2023/05/03 03:17:38;;;;;;;22.77;11.90;;;;;;;3.54;90.55;102304.50;5039221;28;20025;-67
2023/05/03 03:20:05;;;;;;;20.67;10.02;;;;;;;3.52;91.06;102301.91;5017198;28;20203;-68
2023/05/03 03:22:31;;;;;;;19.50;10.20;;;;;;;3.53;91.86;102301.06;5015918;28;20033;-67
2023/05/03 03:24:56;;;;;;;17.67;10.20;;;;;;;3.53;91.79;102301.06;5030876;28;20625;-67
2023/05/03 03:27:22;;;;;;;13.90;8.65;;;;;;;3.51;92.09;102299.25;5037169;28;20044;-67
2023/05/03 03:29:48;;;;;;;22.92;9.93;;;;;;;3.52;92.06;102293.34;5026647;28;20212;-66
2023/05/03 03:32:14;;;;;;;19.40;10.02;;;;;;;3.52;92.50;102293.34;5035057;28;20031;-67
2023/05/03 03:34:39;;;;;;;19.88;10.73;;;;;;;3.50;91.98;102289.84;5032182;28;20588;-67
2023/05/03 03:37:05;;;;;;;20.08;10.35;;;;;;;3.51;92.24;102297.59;5036476;28;20044;-67
2023/05/03 03:39:30;;;;;;;23.17;10.23;;;;;;;3.51;91.86;102296.72;5032438;28;20665;-67
2023/05/03 03:41:56;;;;;;;16.25;8.88;;;;;;;3.51;92.25;102300.16;5035418;28;20044;-66
2023/05/03 03:44:21;;;;;;;25.30;10.75;;;;;;;3.49;92.38;102294.09;5039692;28;20498;-67
2023/05/03 03:46:46;;;;;;;16.73;10.13;;;;;;;3.49;91.87;102293.22;5055154;28;20127;-67
2023/05/03 03:49:12;;;;;;;22.67;10.63;;;;;;;3.48;91.83;102297.44;5057379;28;20043;-66
2023/05/03 03:51:38;;;;;;;19.90;10.25;;;;;;;3.48;91.92;102292.34;5050585;28;20045;-67
2023/05/03 03:54:03;;;;;;;18.10;10.65;;;;;;;3.46;91.76;102293.09;5019862;28;20041;-67
2023/05/03 03:56:29;;;;;;;23.23;11.13;;;;;;;3.44;92.05;102290.44;5030772;28;20037;-67
2023/05/03 03:58:55;;;;;;;20.73;11.20;;;;;;;3.41;91.95;102285.19;5033048;28;20083;-66
2023/05/03 04:01:20;;;;;;;22.30;11.32;;;;;;;3.41;91.79;102289.44;5036235;28;20164;-67
2023/05/03 04:03:46;;;;;;;16.45;9.02;;;;;;;3.40;91.91;102280.03;5037597;28;20529;-67
2023/05/03 04:06:11;;;;;;;18.50;10.80;;;;;;;3.40;92.18;102286.03;5040295;28;20037;-67
2023/05/03 04:08:37;;;;;;;18.83;10.25;;;;;;;3.42;92.60;102283.53;5036479;28;20045;-67
2023/05/03 04:11:02;;;;;;;19.58;10.82;;;;;;;3.42;92.52;102286.06;5034856;28;20115;-67
2023/05/03 04:13:28;;;;;;;22.48;10.73;;;;;;;3.44;92.19;102276.78;5037564;28;20051;-67
2023/05/03 04:15:55;;;;;;;24.20;11.45;;;;;;;3.48;92.33;102276.13;5035953;28;20068;-67
2023/05/03 04:18:21;;;;;;;21.10;10.93;;;;;;;3.50;92.66;102280.50;5029813;28;20091;-66
2023/05/03 04:20:46;;;;;;;17.20;10.05;;;;;;;3.52;92.26;102285.69;5035673;28;20119;-66
2023/05/03 04:23:11;;;;;;;18.95;10.38;;;;;;;3.55;92.38;102283.28;5032505;28;20033;-67
2023/05/03 04:25:37;;;;;;;18.52;9.85;;;;;;;3.59;92.29;102276.63;5053133;28;20614;-67
2023/05/03 04:28:03;;;;;;;17.80;10.05;;;;;;;3.61;92.28;102268.19;5040728;28;20406;-66
2023/05/03 04:30:29;;;;;;;18.90;10.48;;;;;;;3.68;91.41;102276.97;5033334;28;20036;-66
2023/05/03 04:32:57;;;;;;;19.38;9.90;;;;;;;3.71;91.90;102269.44;5034450;28;20342;-66
2023/05/03 04:35:22;;;;;;;22.02;10.48;;;;;;;3.76;91.38;102267.97;5038915;28;20031;-67
2023/05/03 04:37:47;;;;;;;22.48;11.52;;;;;;;3.80;91.70;102259.63;5035918;28;20044;-67
2023/05/03 04:40:13;;;;;;;20.90;10.60;;;;;;;3.84;91.61;102264.94;5050199;28;20087;-67
2023/05/03 04:42:38;;;;;;;25.15;11.50;;;;;;;3.87;91.21;102259.97;5061695;28;20757;-67
2023/05/03 04:45:08;;;;;;;19.17;11.35;;;;;;;3.90;91.04;102259.22;5063804;28;20619;-68
2023/05/03 04:47:34;;;;;;;22.70;10.27;;;;;;;3.95;91.02;102268.81;5038853;28;20135;-67
2023/05/03 04:50:00;;;;;;;25.48;11.05;;;;;;;4.00;91.38;102272.44;5032475;28;20037;-67
2023/05/03 04:52:26;;;;;;;25.17;11.43;;;;;;;4.06;90.29;102276.97;5037142;28;20676;-66
2023/05/03 04:54:52;;;;;;;22.08;11.50;;;;;;;4.12;90.42;102286.56;5057436;28;20047;-67
2023/05/03 04:57:17;;;;;;;21.38;10.23;;;;;;;4.17;90.16;102290.19;5050186;28;20537;-67
2023/05/03 04:59:42;;;;;;;25.15;11.25;;;;;;;4.22;90.20;102294.69;5008583;28;20062;-66
2023/05/03 05:02:09;;;;;;;17.00;10.65;;;;;;;4.27;89.41;102293.19;5030719;28;20086;-67
2023/05/03 05:04:34;;;;;;;18.25;10.65;;;;;;;4.33;89.30;102300.25;5021085;28;20048;-67
2023/05/03 05:07:00;;;;;;;19.02;10.65;;;;;;;4.38;88.27;102301.31;5038332;28;20037;-67
2023/05/03 05:09:27;;;;;;;22.05;11.77;;;;;;;4.45;88.51;102303.28;5034676;28;20827;-67
2023/05/03 05:11:53;;;;;;;22.67;11.43;;;;;;;4.53;88.39;102310.50;5028158;28;20020;-67
2023/05/03 05:14:18;;;;;;;18.15;10.50;;;;;;;4.59;87.64;102303.06;5033882;28;20056;-67
2023/05/03 05:16:44;;;;;;;17.75;10.15;;;;;;;4.66;86.56;102299.91;5028526;28;20049;-67
2023/05/03 05:19:11;;;;;;;25.27;9.75;;;;;;;4.73;86.57;102300.16;5015161;28;20045;-67
2023/05/03 05:21:37;;;;;;;25.88;10.98;;;;;;;4.78;86.31;102307.22;5027633;28;20051;-67
2023/05/03 05:24:03;;;;;;;18.98;10.05;;;;;;;4.82;85.91;102298.84;5036611;28;20037;-67
2023/05/03 05:26:29;;;;;;;21.00;10.73;;;;;;;4.87;85.64;102296.44;5013657;28;20048;-67
2023/05/03 05:28:55;;;;;;;23.50;10.15;;;;;;;4.90;85.93;102305.13;5029915;28;20045;-67
2023/05/03 05:31:20;;;;;;;19.63;10.75;;;;;;;4.94;85.31;102303.56;5034514;28;20036;-68
2023/05/03 05:33:46;;;;;;;19.80;10.73;;;;;;;4.98;84.91;102310.56;5018281;28;20045;-67
2023/05/03 05:36:11;;;;;;;21.90;11.77;;;;;;;5.04;85.86;102315.94;5038109;28;20032;-67
2023/05/03 05:38:37;;;;;;;19.70;10.52;;;;;;;5.13;85.53;102318.84;5036505;28;20524;-67
2023/05/03 05:41:02;;;;;;;20.65;10.52;;;;;;;5.20;84.70;102318.25;5038645;28;20581;-67
2023/05/03 05:43:27;;;;;;;19.00;10.00;;;;;;;5.27;84.51;102316.81;5059967;28;20079;-67
2023/05/03 05:45:53;;;;;;;22.45;11.43;;;;;;;5.35;83.44;102321.41;5057851;28;20059;-67
2023/05/03 05:48:18;;;;;;;16.45;10.50;;;;;;;5.45;83.08;102320.94;5034873;28;20033;-67
2023/05/03 05:50:44;;;;;;;22.15;11.20;;;;;;;5.45;82.95;102333.75;5038806;28;20033;-67
2023/05/03 05:53:10;;;;;;;19.05;10.02;;;;;;;5.53;82.94;102339.16;5041970;28;20020;-67
2023/05/03 05:55:35;;;;;;;17.30;10.30;;;;;;;5.61;82.56;102342.88;5039326;28;20052;-67
2023/05/03 05:58:00;;;;;;;22.00;11.48;;;;;;;5.68;82.40;102345.75;5016619;28;20029;-67
2023/05/03 06:00:26;;;;;;;20.20;9.75;;;;;;;5.78;82.25;102341.81;5033926;28;20048;-67
2023/05/03 06:02:51;;;;;;;20.52;10.55;;;;;;;5.87;81.75;102336.13;5028303;28;20543;-67
2023/05/03 06:05:17;;;;;;;30.00;13.15;;;;;;;5.97;81.61;102343.31;5020417;28;20387;-68
2023/05/03 06:07:42;;;;;;;21.35;11.13;;;;;;;6.08;80.49;102330.03;5031925;28;20418;-67
2023/05/03 06:10:08;;;;;;;23.38;10.50;;;;;;;6.14;79.71;102314.84;5032134;28;20044;-67
2023/05/03 06:12:33;;;;;;;20.85;10.27;;;;;;;6.23;78.95;102316.84;5037908;28;20510;-67
2023/05/03 06:14:59;;;;;;;21.67;10.73;;;;;;;6.24;79.13;102319.50;5032699;28;20037;-68
2023/05/03 06:17:25;;;;;;;21.40;10.13;;;;;;;6.37;78.60;102315.66;5040180;28;20033;-66
2023/05/03 06:19:51;;;;;;;19.23;10.68;;;;;;;6.44;77.59;102314.16;5018439;28;20047;-67
2023/05/03 06:22:16;;;;;;;20.05;9.93;;;;;;;6.51;77.64;102310.94;5035941;28;20369;-67
2023/05/03 06:24:42;;;;;;;22.63;9.93;;;;;;;6.59;77.16;102315.50;5035910;28;20080;-68
2023/05/03 06:27:07;;;;;;;17.83;9.90;;;;;;;6.68;76.83;102304.66;5037020;28;20044;-67
2023/05/03 06:29:32;;;;;;;14.48;9.32;;;;;;;6.76;76.27;102298.09;5031792;28;20021;-67
2023/05/03 06:31:58;;;;;;;20.63;10.35;;;;;;;6.80;75.19;102290.50;5033986;28;20528;-67
2023/05/03 06:34:24;;;;;;;21.70;10.43;;;;;;;6.91;75.55;102312.25;5023687;28;20109;-67
2023/05/03 06:36:49;;;;;;;17.85;9.10;;;;;;;6.86;74.30;102275.28;5040714;28;20047;-67
2023/05/03 06:39:15;;;;;;;20.55;9.10;;;;;;;6.93;73.98;102283.16;5040199;28;20033;-66
2023/05/03 06:41:41;;;;;;;15.73;9.23;;;;;;;7.04;74.55;102300.66;5037578;28;20517;-66
2023/05/03 06:44:06;;;;;;;15.70;8.75;;;;;;;7.11;74.56;102305.19;5036990;28;20046;-66
2023/05/03 06:46:32;;;;;;;18.80;9.93;;;;;;;7.21;73.38;102285.78;5034539;28;20414;-67
2023/05/03 06:48:57;;;;;;;20.15;9.82;;;;;;;7.33;74.05;102293.84;5036686;28;20076;-63
2023/05/03 06:51:27;;;;;;;17.88;9.57;;;;;;;7.40;74.09;102300.91;5038186;28;20041;-63
2023/05/03 06:53:55;;;;;;;17.70;9.32;;;;;;;7.47;73.03;102282.28;5038065;28;20056;-63
2023/05/03 06:56:21;;;;;;;19.45;9.27;;;;;;;7.58;72.40;102279.97;5028428;28;20037;-63
2023/05/03 06:58:46;;;;;;;20.17;9.60;;;;;;;7.67;72.50;102273.41;5035261;28;20036;-63
2023/05/03 07:01:11;;;;;;;16.55;9.65;;;;;;;7.77;71.69;102259.09;5022144;28;20367;-63
2023/05/03 07:03:37;;;;;;;14.38;8.45;;;;;;;7.90;72.92;102280.03;5019272;28;20049;-63
2023/05/03 07:06:03;;;;;;;18.95;9.25;;;;;;;7.93;71.87;102271.50;5039380;28;20750;-63
2023/05/03 07:08:28;;;;;;;17.60;9.63;;;;;;;8.03;71.41;102252.91;5031480;28;20048;-64
2023/05/03 07:10:54;;;;;;;15.52;9.27;;;;;;;8.13;71.99;102275.47;5052491;28;20036;-63
2023/05/03 07:13:19;;;;;;;17.92;8.63;;;;;;;8.13;70.53;102226.53;5055299;28;20154;-63
2023/05/03 07:15:44;;;;;;;17.20;9.80;;;;;;;8.16;69.80;102230.91;5043343;28;20032;-63
2023/05/03 07:18:10;;;;;;;14.10;7.88;;;;;;;8.36;70.62;102242.56;5054825;28;20033;-63
2023/05/03 07:20:35;;;;;;;17.40;8.70;;;;;;;8.52;69.45;102227.50;5038862;28;20037;-63
2023/05/03 07:23:01;;;;;;;17.83;8.65;;;;;;;8.66;69.19;102214.06;5054019;28;20049;-63
2023/05/03 07:25:26;;;;;;;15.77;8.73;;;;;;;8.80;69.14;102215.25;5058300;28;20059;-62
2023/05/03 07:27:52;;;;;;;14.80;8.38;;;;;;;8.83;67.79;102180.09;5044725;28;20506;-62
2023/05/03 07:30:17;;;;;;;19.88;8.63;;;;;;;8.94;67.87;102214.69;5040698;28;20149;-61
2023/05/03 07:32:43;;;;;;;13.98;9.00;;;;;;;9.02;67.16;102195.09;5059518;28;20032;-62
2023/05/03 07:35:09;;;;;;;20.33;8.43;;;;;;;8.98;67.74;102184.69;5058749;28;20530;-61
2023/05/03 07:37:37;;;;;;;16.42;7.68;;;;;;;9.10;66.67;102164.31;5055770;28;20090;-61
2023/05/03 07:40:05;;;;;;;14.90;7.50;;;;;;;9.31;66.42;102172.47;5045480;28;20075;-61
2023/05/03 07:42:31;;;;;;;13.80;7.07;;;;;;;9.50;64.82;102134.94;5035383;28;20387;-62
2023/05/03 07:44:56;;;;;;;11.27;6.90;;;;;;;9.49;63.86;102115.16;5038484;28;20079;-62
2023/05/03 07:47:22;;;;;;;13.18;7.53;;;;;;;9.51;63.03;102100.56;5039595;28;20037;-62
2023/05/03 07:49:49;;;;;;;11.80;6.82;;;;;;;9.65;63.12;102112.00;5034808;28;20063;-62
2023/05/03 07:52:15;;;;;;;11.43;6.15;;;;;;;9.85;62.01;102082.22;5036692;28;20029;-61
2023/05/03 07:54:41;;;;;;;12.18;6.35;;;;;;;10.04;62.20;102073.91;5032635;28;20771;-61
2023/05/03 07:57:07;;;;;;;16.02;7.25;;;;;;;9.98;61.86;102075.53;5037381;28;20047;-62
2023/05/03 07:59:32;;;;;;;8.40;6.07;;;;;;;10.02;60.29;102062.69;5031650;28;20048;-62
2023/05/03 08:01:58;;;;;;;14.00;6.45;;;;;;;10.11;60.01;102056.78;5005864;28;20052;-62
2023/05/03 08:04:23;;;;;;;14.82;6.40;;;;;;;10.21;60.50;102066.38;5032279;28;20148;-62
2023/05/03 08:06:49;;;;;;;12.75;6.65;;;;;;;10.33;59.53;102053.63;5034553;28;20028;-61
2023/05/03 08:09:15;;;;;;;11.13;6.65;;;;;;;10.44;59.88;102043.44;5035035;28;20152;-62
2023/05/03 08:11:40;;;;;;;11.00;6.40;;;;;;;10.54;59.15;102048.75;5037347;28;20039;-62
2023/05/03 08:14:05;;;;;;;11.50;6.20;;;;;;;10.70;58.43;102039.44;5034578;28;20513;-61
2023/05/03 08:16:31;;;;;;;11.77;6.28;;;;;;;10.83;58.04;102032.72;5038221;28;20052;-63
2023/05/03 08:18:56;;;;;;;13.35;6.70;;;;;;;10.93;57.54;102031.94;5031437;28;20087;-62
2023/05/03 08:21:23;;;;;;;11.65;6.13;;;;;;;11.03;57.62;102029.47;5037033;28;20041;-62
2023/05/03 08:23:49;;;;;;;10.88;6.55;;;;;;;11.12;57.46;102026.97;5033934;28;20041;-62
2023/05/03 08:26:16;;;;;;;11.18;5.72;;;;;;;11.19;56.14;102025.28;5050674;28;20043;-62
2023/05/03 08:28:41;;;;;;;13.32;6.30;;;;;;;11.19;56.48;102023.56;5043692;28;20154;-62
2023/05/03 08:31:07;;;;;;;9.25;6.55;;;;;;;11.15;56.34;102036.47;5038982;28;20041;-63
2023/05/03 08:33:32;;;;;;;12.52;5.90;;;;;;;11.16;56.06;102018.38;5039068;28;20743;-62
2023/05/03 08:35:58;;;;;;;9.50;5.95;;;;;;;11.19;56.20;102033.91;5035479;28;20041;-62
2023/05/03 08:38:23;;;;;;;11.40;6.07;;;;;;;11.29;56.05;102033.16;5037418;28;20927;-61
2023/05/03 08:40:51;;;;;;;9.45;5.82;;;;;;;11.50;55.60;102021.28;5032316;28;20055;-62
2023/05/03 08:43:19;;;;;;;9.18;6.45;;;;;;;11.76;55.42;102022.34;5017489;28;20136;-62
2023/05/03 08:45:45;;;;;;;12.02;5.72;;;;;;;11.86;55.04;102006.88;5030321;28;20089;-62
2023/05/03 08:48:11;;;;;;;11.27;5.63;;;;;;;11.71;53.69;101983.47;5035228;28;20044;-63
2023/05/03 08:50:40;;;;;;;10.27;5.82;;;;;;;11.91;54.70;102004.28;5030986;28;20044;-62
2023/05/03 08:53:10;;;;;;;15.32;6.72;;;;;;;12.02;52.71;101971.53;5004855;28;20037;-61
2023/05/03 08:55:36;;;;;;;11.85;5.60;;;;;;;12.14;54.58;102005.28;5043634;28;20037;-62
2023/05/03 08:58:09;;;;;;;7.40;5.38;;;;;;;12.30;52.92;101977.72;5031568;28;20453;-62
2023/05/03 09:00:35;;;;;;;12.00;5.18;;;;;;;12.29;51.44;101950.91;5056862;28;20053;-67
2023/05/03 09:03:00;;;;;;;11.40;5.63;;;;;;;12.45;52.26;101957.91;5056180;28;20804;-67
2023/05/03 09:05:29;;;;;;;10.90;5.40;;;;;;;12.57;51.75;101944.09;5054120;28;20037;-61
2023/05/03 09:08:09;;;;;;;8.52;5.32;;;;;;;12.62;52.55;101970.03;5052935;28;20155;-62
2023/05/03 09:10:39;;;;;;;10.13;5.00;;;;;;;12.76;52.08;101961.41;5048491;28;20636;-62
2023/05/03 09:13:06;;;;;;;8.88;5.45;;;;;;;12.84;51.21;101941.56;5048990;28;20047;-62
2023/05/03 09:15:32;;;;;;;8.95;5.53;;;;;;;12.92;50.66;101942.41;5053756;28;20040;-62
2023/05/03 09:18:10;;;;;;;11.50;5.65;;;;;;;12.64;49.19;101908.66;5054016;28;20194;-62
2023/05/03 09:20:38;;;;;;;11.65;5.07;;;;;;;12.63;50.04;101927.66;5055440;28;20051;-62
2023/05/03 09:23:05;;;;;;;7.70;5.47;;;;;;;12.75;50.21;101945.84;5051901;28;20047;-62
2023/05/03 09:25:50;;;;;;;7.40;5.13;;;;;;;12.71;50.12;101934.59;5060244;28;20036;-63
2023/05/03 09:28:16;;;;;;;9.32;5.20;;;;;;;12.77;49.71;101920.75;5054023;28;20094;-63
2023/05/03 09:30:43;;;;;;;10.40;5.50;;;;;;;12.91;50.33;101945.03;5058616;28;20040;-63
2023/05/03 09:33:10;;;;;;;11.73;5.60;;;;;;;12.94;50.22;101945.00;5062129;28;20027;-62
2023/05/03 09:35:36;;;;;;;8.73;4.97;;;;;;;12.95;49.25;101931.16;5058355;28;20037;-63
2023/05/03 09:38:02;;;;;;;11.13;5.53;;;;;;;12.94;50.30;101935.47;5055555;28;20460;-63
2023/05/03 09:40:28;;;;;;;7.85;5.43;;;;;;;13.11;50.29;101943.34;5052934;28;20040;-63
2023/05/03 09:43:15;;;;;;;10.45;5.97;;;;;;;13.42;48.41;101898.28;5056434;28;20053;-63
2023/05/03 09:45:40;;;;;;;7.22;5.47;;;;;;;13.56;48.94;101917.28;5055377;28;20045;-63
2023/05/03 09:48:07;;;;;;;7.18;4.30;;;;;;;13.72;48.50;101912.06;5057681;28;20060;-63
2023/05/03 09:50:34;;;;;;;8.05;4.80;;;;;;;13.47;47.20;101888.72;5051920;28;20145;-63
2023/05/03 09:53:02;;;;;;;9.25;4.72;;;;;;;13.58;48.58;101909.50;5053004;28;20039;-63
2023/05/03 09:55:38;;;;;;;7.22;5.15;;;;;;;13.76;49.01;101916.38;5057244;28;20037;-63
2023/05/03 09:58:07;;;;;;;7.72;5.57;;;;;;;13.70;48.00;101893.00;5056297;28;20052;-63
2023/05/03 10:00:37;;;;;;;8.68;5.60;;;;;;;13.70;47.69;101893.88;5057499;28;20070;-63
2023/05/03 10:03:08;;;;;;;8.40;5.35;;;;;;;13.86;48.53;101900.75;5039225;28;20398;-63
2023/05/03 10:05:45;;;;;;;11.88;5.35;;;;;;;13.72;47.70;101879.13;5056293;28;20048;-63
2023/05/03 10:08:33;;;;;;;8.55;5.18;;;;;;;13.97;48.80;101905.91;5055703;28;20053;-63
2023/05/03 10:11:00;;;;;;;8.60;4.90;;;;;;;14.29;47.89;101901.41;5054299;28;20139;-63
2023/05/03 10:13:28;;;;;;;8.50;4.85;;;;;;;14.50;45.48;101849.28;5056025;28;20059;-63
2023/05/03 10:16:10;;;;;;;8.93;4.75;;;;;;;14.56;46.38;101864.00;5037621;28;20028;-63
2023/05/03 10:18:44;;;;;;;7.95;4.68;;;;;;;14.76;45.61;101856.88;5050857;28;20037;-63
2023/05/03 10:21:28;;;;;;;7.50;4.65;;;;;;;14.73;44.62;101836.09;5059025;28;20032;-63
2023/05/03 10:24:15;;;;;;;6.28;4.28;;;;;;;14.80;45.13;101834.31;5057412;28;20677;-62
2023/05/03 10:26:44;;;;;;;8.73;5.43;;;;;;;14.65;45.18;101854.38;5050698;28;20045;-63
2023/05/03 10:29:34;;;;;;;11.40;5.28;;;;;;;14.85;43.64;101829.91;5054409;28;20968;-63
2023/05/03 10:32:28;;;;;;;7.00;4.43;;;;;;;14.78;43.03;101797.03;5054716;28;20036;-63
2023/05/03 10:35:02;;;;;;;7.18;4.07;;;;;;;14.76;43.67;101802.22;5055095;28;20482;-63
2023/05/03 10:37:27;;;;;;;8.57;4.10;;;;;;;14.90;44.18;101821.19;5056123;28;20071;-63
2023/05/03 10:39:53;;;;;;;7.45;4.45;;;;;;;15.16;44.39;101827.03;5054272;28;20170;-63
2023/05/03 10:42:23;;;;;;;5.53;3.75;;;;;;;15.48;44.37;101821.47;5055777;28;20202;-63
2023/05/03 10:44:48;;;;;;;11.02;4.30;;;;;;;15.44;42.14;101798.03;5057658;28;20115;-63
2023/05/03 10:47:17;;;;;;;9.25;4.20;;;;;;;15.37;42.91;101799.88;5055010;28;20463;-63
2023/05/03 10:49:43;;;;;;;7.28;3.83;;;;;;;15.37;43.16;101807.69;5054333;28;20040;-63
2023/05/03 10:52:34;;;;;;;7.97;4.47;;;;;;;15.61;43.76;101819.56;5054721;28;20036;-63
2023/05/03 10:55:00;;;;;;;9.07;4.80;;;;;;;15.46;41.03;101768.50;5051398;28;20090;-63
2023/05/03 10:57:30;;;;;;;6.45;3.95;;;;;;;15.37;41.73;101772.97;5052453;28;20036;-63
2023/05/03 10:59:57;;;;;;;6.70;3.90;;;;;;;15.69;43.77;101816.03;5051756;28;20089;-63
2023/05/03 11:02:27;;;;;;;7.68;4.00;;;;;;;15.53;42.14;101779.69;5054658;28;20128;-63
2023/05/03 11:04:57;;;;;;;4.60;3.33;;;;;;;15.71;43.01;101803.81;5050519;28;20036;-63
2023/05/03 11:07:23;;;;;;;8.88;3.63;;;;;;;15.97;41.39;101766.94;5047418;28;20071;-62
2023/05/03 11:09:48;;;;;;;6.10;2.97;;;;;;;16.21;40.88;101757.91;5054634;28;20492;-63
2023/05/03 11:12:14;;;;;;;6.22;3.30;;;;;;;16.11;40.47;101746.75;5050197;28;20070;-63
2023/05/03 11:14:41;;;;;;;9.13;3.95;;;;;;;16.30;40.47;101762.97;5036673;28;20036;-63
2023/05/03 11:17:07;;;;;;;8.15;3.80;;;;;;;16.21;40.05;101757.91;5052883;28;20413;-63
2023/05/03 11:19:32;;;;;;;5.50;3.28;;;;;;;16.40;42.05;101771.50;5054687;28;20037;-63
2023/05/03 11:21:58;;;;;;;6.95;3.40;;;;;;;16.58;38.81;101735.53;5056285;28;20059;-63